createdAt,value
2022-11-23T00:01:18.115Z,165.32
2022-11-23T00:03:49.442Z,168.45
2022-11-23T00:06:18.090Z,174.40
2022-11-23T00:08:46.810Z,174.05
2022-11-23T00:11:15.244Z,170.85
2022-11-23T00:13:43.841Z,175.95
2022-11-23T00:16:15.761Z,178.23
2022-11-23T00:18:44.353Z,179.03
2022-11-23T00:21:15.620Z,181.50
2022-11-23T00:23:44.693Z,190.35
2022-11-23T00:26:13.886Z,174.23
2022-11-23T00:28:42.253Z,176.88
2022-11-23T00:31:11.924Z,193.73
2022-11-23T00:33:40.308Z,176.60
2022-11-23T00:36:11.820Z,180.82
2022-11-23T00:38:42.106Z,182.00
2022-11-23T00:41:12.194Z,180.05
2022-11-23T00:43:40.409Z,171.35
2022-11-23T00:46:11.349Z,183.23
2022-11-23T00:48:39.635Z,177.77
2022-11-23T00:51:09.341Z,172.90
2022-11-23T00:53:37.997Z,176.65
2022-11-23T00:56:08.156Z,178.25
2022-11-23T00:58:38.695Z,177.60
2022-11-23T01:01:09.651Z,176.00
2022-11-23T01:03:38.999Z,173.55
2022-11-23T01:06:09.016Z,184.00
2022-11-23T01:08:37.706Z,185.45
2022-11-23T01:11:09.623Z,177.80
2022-11-23T01:13:38.697Z,175.77
2022-11-23T01:16:11.241Z,167.77
2022-11-23T01:18:39.357Z,177.32
2022-11-23T01:21:07.866Z,171.35
2022-11-23T01:23:36.041Z,172.43
2022-11-23T01:26:10.047Z,171.52
2022-11-23T01:28:40.739Z,175.52
2022-11-23T01:31:12.959Z,170.35
2022-11-23T01:33:42.710Z,166.77
2022-11-23T01:36:14.478Z,179.80
2022-11-23T01:38:42.989Z,168.05
2022-11-23T01:41:15.107Z,181.77
2022-11-23T01:43:43.627Z,179.32
2022-11-23T01:46:14.227Z,169.07
2022-11-23T01:48:45.536Z,169.25
2022-11-23T01:51:16.269Z,189.45
2022-11-23T01:53:45.790Z,172.02
2022-11-23T01:56:18.324Z,157.73
2022-11-23T01:58:48.762Z,154.57
2022-11-23T02:01:17.400Z,167.80
2022-11-23T02:03:48.674Z,161.73
2022-11-23T02:06:21.296Z,159.88
2022-11-23T02:08:50.094Z,162.93
2022-11-23T02:11:19.624Z,155.88
2022-11-23T02:13:51.304Z,161.88
2022-11-23T02:16:20.240Z,153.77
2022-11-23T02:18:50.891Z,159.43
2022-11-23T02:21:21.950Z,164.00
2022-11-23T02:23:56.638Z,147.50
2022-11-23T02:26:28.538Z,152.52
2022-11-23T02:29:01.800Z,147.93
2022-11-23T02:31:32.112Z,145.90
2022-11-23T02:34:00.186Z,137.13
2022-11-23T02:36:36.561Z,142.68
2022-11-23T02:39:10.670Z,154.30
2022-11-23T02:41:43.228Z,152.13
2022-11-23T02:44:22.311Z,141.48
2022-11-23T02:46:52.011Z,146.02
2022-11-23T02:49:23.684Z,133.80
2022-11-23T02:51:52.639Z,132.35
2022-11-23T02:54:21.110Z,142.25
2022-11-23T02:56:50.784Z,136.02
2022-11-23T02:59:20.671Z,130.68
2022-11-23T03:01:53.088Z,137.10
2022-11-23T03:04:27.307Z,141.07
2022-11-23T03:06:56.343Z,140.77
2022-11-23T03:09:26.189Z,140.93
2022-11-23T03:11:59.436Z,143.95
2022-11-23T03:14:29.680Z,143.95
2022-11-23T03:17:03.505Z,139.20
2022-11-23T03:19:39.184Z,137.45
2022-11-23T03:22:10.666Z,142.70
2022-11-23T03:24:39.070Z,137.57
2022-11-23T03:27:11.277Z,148.93
2022-11-23T03:29:41.254Z,139.75
2022-11-23T03:32:15.228Z,144.07
2022-11-23T03:34:47.057Z,151.65
2022-11-23T03:37:17.407Z,148.07
2022-11-23T03:39:47.583Z,144.77
2022-11-23T03:42:26.563Z,143.80
2022-11-23T03:44:54.731Z,147.60
2022-11-23T03:47:22.909Z,142.43
2022-11-23T03:49:51.309Z,142.68
2022-11-23T03:52:19.549Z,145.38
2022-11-23T03:54:49.024Z,147.10
2022-11-23T03:57:17.571Z,144.30
2022-11-23T03:59:48.018Z,153.35
2022-11-23T04:02:16.150Z,144.60
2022-11-23T04:04:52.275Z,135.25
2022-11-23T04:07:38.957Z,153.60
2022-11-23T04:10:07.889Z,155.75
2022-11-23T04:12:58.713Z,140.30
2022-11-23T04:15:28.257Z,140.07
2022-11-23T04:17:56.883Z,156.20
2022-11-23T04:20:25.172Z,146.95
2022-11-23T04:22:53.351Z,153.07
2022-11-23T04:25:21.495Z,153.40
2022-11-23T04:27:52.079Z,154.65
2022-11-23T04:30:21.187Z,151.68
2022-11-23T04:32:50.733Z,163.75
2022-11-23T04:35:19.952Z,148.40
2022-11-23T04:37:51.059Z,155.15
2022-11-23T04:40:19.991Z,149.93
2022-11-23T04:43:17.233Z,149.98
2022-11-23T04:45:46.570Z,148.40
2022-11-23T04:48:24.591Z,153.57
2022-11-23T04:50:55.895Z,148.73
2022-11-23T04:53:31.162Z,145.07
2022-11-23T04:56:00.731Z,157.13
2022-11-23T04:58:34.580Z,150.73
2022-11-23T05:01:04.177Z,149.95
2022-11-23T05:03:37.804Z,149.32
2022-11-23T05:06:10.417Z,151.65
2022-11-23T05:08:46.756Z,150.13
2022-11-23T05:11:35.242Z,155.77
2022-11-23T05:14:04.268Z,160.07
2022-11-23T05:16:34.884Z,151.65
2022-11-23T05:19:04.541Z,151.85
2022-11-23T05:21:34.039Z,145.57
2022-11-23T05:24:02.479Z,150.35
2022-11-23T05:26:31.315Z,141.75
2022-11-23T05:28:59.484Z,129.90
2022-11-23T05:31:31.290Z,146.00
2022-11-23T05:34:04.572Z,149.23
2022-11-23T05:36:42.663Z,142.23
2022-11-23T05:39:11.565Z,140.73
2022-11-23T05:41:42.376Z,142.20
2022-11-23T05:44:24.304Z,147.55
2022-11-23T05:46:52.625Z,138.98
2022-11-23T05:49:20.807Z,137.95
2022-11-23T05:51:52.867Z,141.75
2022-11-23T05:54:21.667Z,137.35
2022-11-23T05:57:12.183Z,140.18
2022-11-23T05:59:42.202Z,133.60
2022-11-23T06:02:15.356Z,127.82
2022-11-23T06:04:44.144Z,131.65
2022-11-23T06:07:19.359Z,128.27
2022-11-23T06:10:04.708Z,136.38
2022-11-23T06:12:34.452Z,134.98
2022-11-23T06:15:05.562Z,131.40
2022-11-23T06:17:36.909Z,128.75
2022-11-23T06:20:10.165Z,128.93
2022-11-23T06:22:44.957Z,127.85
2022-11-23T06:25:16.986Z,121.07
2022-11-23T06:27:57.812Z,118.33
2022-11-23T06:30:33.724Z,117.80
2022-11-23T06:33:06.845Z,126.68
2022-11-23T06:35:41.502Z,125.05
2022-11-23T06:38:12.129Z,123.82
2022-11-23T06:40:40.649Z,120.75
2022-11-23T06:43:09.027Z,124.05
2022-11-23T06:45:45.130Z,122.00
2022-11-23T06:48:16.225Z,115.97
2022-11-23T06:50:47.995Z,127.53
2022-11-23T06:53:19.102Z,114.50
2022-11-23T06:55:52.137Z,127.35
2022-11-23T06:58:22.852Z,124.00
2022-11-23T07:00:52.251Z,119.20
2022-11-23T07:03:23.146Z,125.70
2022-11-23T07:05:57.357Z,120.88
2022-11-23T07:08:30.508Z,119.83
2022-11-23T07:11:03.400Z,126.38
2022-11-23T07:13:32.740Z,131.50
2022-11-23T07:16:01.158Z,131.43
2022-11-23T07:18:29.622Z,129.48
2022-11-23T07:21:01.221Z,130.75
2022-11-23T07:23:30.974Z,135.38
2022-11-23T07:25:59.191Z,134.20
2022-11-23T07:28:32.628Z,130.00
2022-11-23T07:31:03.430Z,132.73
2022-11-23T07:33:31.616Z,135.20
2022-11-23T07:36:02.845Z,128.60
2022-11-23T07:38:36.171Z,126.97
2022-11-23T07:41:07.888Z,129.23
2022-11-23T07:43:55.710Z,134.35
2022-11-23T07:46:23.845Z,130.88
2022-11-23T07:48:59.342Z,126.15
2022-11-23T07:53:56.768Z,134.57
2022-11-23T07:56:25.457Z,153.38
2022-11-23T07:58:53.699Z,151.90
2022-11-23T08:01:21.906Z,143.13
2022-11-23T08:03:50.588Z,133.45
2022-11-23T08:06:19.260Z,132.98
2022-11-23T08:08:47.457Z,123.97
2022-11-23T08:11:18.731Z,122.18
2022-11-23T08:13:46.842Z,114.97
2022-11-23T08:16:14.979Z,117.68
2022-11-23T08:18:43.273Z,118.15
2022-11-23T08:21:11.366Z,116.88
2022-11-23T08:23:39.499Z,117.15
2022-11-23T08:26:18.507Z,108.47
2022-11-23T08:28:46.710Z,118.78
2022-11-23T08:31:17.186Z,111.13
2022-11-23T08:33:45.325Z,112.25
2022-11-23T08:36:15.580Z,103.28
2022-11-23T08:38:43.846Z,94.13
2022-11-23T08:41:11.954Z,96.57
2022-11-23T08:43:41.528Z,101.57
2022-11-23T08:46:11.356Z,108.57
2022-11-23T08:48:39.756Z,92.60
2022-11-23T08:51:08.607Z,83.82
2022-11-23T08:53:36.987Z,86.68
2022-11-23T08:56:08.805Z,84.40
2022-11-23T08:58:37.756Z,106.00
2022-11-23T09:01:11.014Z,109.03
2022-11-23T09:03:39.998Z,74.38
2022-11-23T09:06:08.878Z,88.28
2022-11-23T09:08:37.620Z,117.07
2022-11-23T09:11:08.358Z,80.68
2022-11-23T09:13:38.171Z,77.82
2022-11-23T09:16:10.560Z,73.55
2022-11-23T09:18:40.083Z,70.57
2022-11-23T09:21:08.327Z,68.63
2022-11-23T09:23:36.523Z,80.15
2022-11-23T09:26:05.999Z,73.57
2022-11-23T09:28:34.395Z,74.80
2022-11-23T09:31:05.354Z,68.28
2022-11-23T09:33:33.794Z,72.93
2022-11-23T09:36:05.347Z,71.72
2022-11-23T09:38:55.178Z,75.03
2022-11-23T09:41:51.839Z,71.13
2022-11-23T09:44:27.789Z,74.13
2022-11-23T09:47:20.903Z,75.63
2022-11-23T09:50:00.024Z,66.72
2022-11-23T09:52:30.906Z,77.93
2022-11-23T09:55:06.658Z,81.65
2022-11-23T09:57:37.204Z,77.43
2022-11-23T10:00:16.138Z,86.43
2022-11-23T10:02:44.426Z,64.70
2022-11-23T10:05:19.135Z,75.82
2022-11-23T10:08:05.574Z,57.88
2022-11-23T10:10:41.841Z,64.07
2022-11-23T10:13:30.437Z,60.50
2022-11-23T10:16:14.280Z,60.33
2022-11-23T10:18:54.818Z,53.42
2022-11-23T10:21:38.568Z,60.75
2022-11-23T10:24:19.256Z,57.70
2022-11-23T10:26:49.673Z,63.97
2022-11-23T10:29:26.520Z,51.17
2022-11-23T10:31:57.493Z,48.13
2022-11-23T10:34:47.634Z,49.75
2022-11-23T10:37:17.627Z,123.65
2022-11-23T10:39:49.734Z,58.83
2022-11-23T10:42:25.572Z,55.55
2022-11-23T10:44:56.544Z,50.45
2022-11-23T10:47:39.992Z,58.05
2022-11-23T10:50:26.359Z,61.88
2022-11-23T10:52:58.020Z,62.45
2022-11-23T10:55:30.302Z,78.57
2022-11-23T10:57:59.075Z,99.40
2022-11-23T11:00:30.818Z,68.43
2022-11-23T11:03:03.341Z,57.22
2022-11-23T11:06:07.579Z,56.40
2022-11-23T11:08:30.231Z,51.78
2022-11-23T11:11:03.053Z,56.10
2022-11-23T11:13:33.079Z,54.05
2022-11-23T11:16:03.125Z,49.25
2022-11-23T11:18:33.768Z,49.22
2022-11-23T11:21:07.445Z,75.05
2022-11-23T11:23:41.568Z,47.47
2022-11-23T11:26:21.415Z,44.40
2022-11-23T11:28:51.522Z,50.40
2022-11-23T11:31:54.622Z,48.08
2022-11-23T11:34:27.768Z,49.67
2022-11-23T11:37:03.341Z,46.45
2022-11-23T11:39:36.711Z,48.03
2022-11-23T11:42:14.544Z,45.78
2022-11-23T11:44:45.580Z,43.90
2022-11-23T11:47:25.369Z,44.58
2022-11-23T11:49:57.890Z,47.72
2022-11-23T11:52:29.485Z,59.17
2022-11-23T11:55:03.069Z,59.78
2022-11-23T11:57:37.220Z,51.40
2022-11-23T12:00:14.959Z,58.38
2022-11-23T12:02:53.055Z,50.33
2022-11-23T12:05:25.339Z,46.78
2022-11-23T12:08:02.711Z,46.30
2022-11-23T12:10:37.748Z,43.45
2022-11-23T12:13:10.186Z,44.10
2022-11-23T12:15:49.387Z,44.70
2022-11-23T12:18:38.438Z,47.67
2022-11-23T12:21:14.328Z,48.17
2022-11-23T12:23:53.546Z,43.92
2022-11-23T12:26:30.544Z,50.72
2022-11-23T12:29:27.110Z,44.72
2022-11-23T12:32:06.925Z,47.08
2022-11-23T12:34:52.122Z,45.88
2022-11-23T12:37:32.495Z,78.45
2022-11-23T12:40:27.825Z,42.55
2022-11-23T12:43:02.792Z,46.17
2022-11-23T12:45:46.501Z,157.30
2022-11-23T12:48:31.300Z,78.18
2022-11-23T12:51:11.256Z,51.60
2022-11-23T12:53:50.691Z,50.28
2022-11-23T12:56:31.898Z,47.53
2022-11-23T12:59:01.271Z,51.90
2022-11-23T13:01:34.953Z,65.00
2022-11-23T13:04:35.731Z,54.78
2022-11-23T13:07:39.823Z,46.40
2022-11-23T13:10:40.912Z,40.45
2022-11-23T13:13:19.894Z,43.40
2022-11-23T13:16:20.361Z,40.42
2022-11-23T13:19:05.159Z,39.20
2022-11-23T13:21:41.007Z,39.10
2022-11-23T13:24:29.209Z,40.47
2022-11-23T13:27:32.612Z,43.95
2022-11-23T13:30:11.273Z,39.58
2022-11-23T13:32:55.174Z,36.25
2022-11-23T13:35:56.858Z,38.10
2022-11-23T13:38:44.581Z,36.90
2022-11-23T13:41:46.537Z,37.33
2022-11-23T13:44:21.601Z,36.88
2022-11-23T13:47:01.596Z,37.92
2022-11-23T13:49:32.453Z,39.92
2022-11-23T13:52:30.239Z,42.05
2022-11-23T13:55:09.021Z,37.72
2022-11-23T13:57:39.016Z,36.85
2022-11-23T14:00:45.592Z,35.08
2022-11-23T14:03:57.043Z,47.60
2022-11-23T14:06:42.918Z,40.60
2022-11-23T14:09:19.132Z,44.13
2022-11-23T14:11:58.904Z,42.25
2022-11-23T14:14:34.962Z,45.05
2022-11-23T14:17:24.862Z,45.72
2022-11-23T14:20:20.151Z,45.83
2022-11-23T14:23:07.782Z,52.05
2022-11-23T14:25:50.177Z,47.78
2022-11-23T14:28:32.604Z,40.35
2022-11-23T14:31:13.514Z,44.35
2022-11-23T14:33:50.763Z,39.72
2022-11-23T14:36:32.892Z,41.78
2022-11-23T14:39:40.650Z,43.80
2022-11-23T14:42:14.143Z,41.55
2022-11-23T14:44:46.217Z,45.47
2022-11-23T14:47:14.842Z,44.43
2022-11-23T14:49:52.578Z,48.33
2022-11-23T14:52:22.952Z,48.60
2022-11-23T14:54:53.066Z,45.17
2022-11-23T14:57:23.587Z,47.25
2022-11-23T14:59:56.806Z,47.03
2022-11-23T15:02:28.840Z,42.47
2022-11-23T15:05:04.236Z,49.27
2022-11-23T15:07:45.956Z,56.97
2022-11-23T15:10:34.728Z,46.33
2022-11-23T15:13:03.221Z,47.05
2022-11-23T15:15:37.913Z,52.13
2022-11-23T15:18:06.282Z,55.75
2022-11-23T15:20:37.129Z,49.92
2022-11-23T15:23:06.155Z,51.88
2022-11-23T15:25:34.282Z,46.53
2022-11-23T15:28:02.548Z,47.30
2022-11-23T15:30:33.178Z,59.83
2022-11-23T15:33:07.634Z,50.13
2022-11-23T15:35:38.136Z,60.67
2022-11-23T15:38:14.946Z,49.50
2022-11-23T15:40:47.159Z,52.83
2022-11-23T15:43:16.744Z,50.30
2022-11-23T15:46:03.897Z,51.72
2022-11-23T15:48:35.549Z,47.58
2022-11-23T15:51:05.809Z,47.88
2022-11-23T15:53:43.005Z,50.42
2022-11-23T15:56:19.147Z,55.28
2022-11-23T15:58:51.047Z,52.67
2022-11-23T16:01:22.087Z,51.35
2022-11-23T16:03:52.608Z,48.33
2022-11-23T16:06:35.316Z,63.42
2022-11-23T16:09:10.102Z,58.30
2022-11-23T16:11:46.464Z,56.50
2022-11-23T16:14:18.143Z,50.60
2022-11-23T16:16:49.526Z,55.92
2022-11-23T16:19:28.315Z,51.40
2022-11-23T16:22:02.477Z,60.05
2022-11-23T16:24:33.823Z,54.55
2022-11-23T16:27:03.263Z,55.22
2022-11-23T16:29:36.800Z,54.25
2022-11-23T16:32:08.519Z,84.82
2022-11-23T16:34:36.805Z,55.60
2022-11-23T16:37:05.124Z,86.68
2022-11-23T16:39:33.304Z,68.93
2022-11-23T16:42:01.653Z,58.38
2022-11-23T16:44:35.158Z,63.53
2022-11-23T16:47:20.943Z,68.50
2022-11-23T16:49:49.313Z,72.43
2022-11-23T16:52:18.034Z,61.78
2022-11-23T16:54:49.246Z,63.78
2022-11-23T16:57:38.192Z,62.30
2022-11-23T17:00:09.504Z,65.32
2022-11-23T17:02:39.288Z,69.70
2022-11-23T17:05:14.120Z,68.50
2022-11-23T17:07:42.507Z,71.20
2022-11-23T17:10:11.678Z,71.38
2022-11-23T17:12:41.290Z,72.07
2022-11-23T17:15:13.621Z,75.25
2022-11-23T17:17:43.884Z,80.55
2022-11-23T17:20:17.666Z,75.47
2022-11-23T17:22:51.651Z,83.38
2022-11-23T17:25:20.544Z,83.63
2022-11-23T17:27:50.541Z,77.45
2022-11-23T17:30:23.156Z,85.07
2022-11-23T17:32:53.298Z,98.38
2022-11-23T17:35:22.103Z,95.80
2022-11-23T17:37:50.383Z,91.80
2022-11-23T17:40:20.377Z,97.88
2022-11-23T17:42:48.977Z,90.88
2022-11-23T17:45:17.372Z,94.82
2022-11-23T17:47:46.183Z,112.60
2022-11-23T17:50:19.474Z,88.60
2022-11-23T17:52:48.428Z,92.47
2022-11-23T17:55:18.047Z,86.38
2022-11-23T17:57:46.326Z,87.07
2022-11-23T18:00:18.805Z,88.85
2022-11-23T18:02:47.872Z,97.38
2022-11-23T18:05:21.924Z,89.75
2022-11-23T18:07:51.045Z,94.97
2022-11-23T18:10:20.091Z,94.40
2022-11-23T18:12:49.124Z,91.78
2022-11-23T18:15:20.892Z,94.95
2022-11-23T18:17:49.435Z,92.55
2022-11-23T18:20:19.121Z,90.63
2022-11-23T18:22:47.430Z,89.45
2022-11-23T18:25:18.038Z,97.28
2022-11-23T18:27:46.281Z,95.45
2022-11-23T18:30:18.290Z,99.45
2022-11-23T18:32:46.964Z,105.55
2022-11-23T18:35:15.414Z,103.28
2022-11-23T18:37:45.229Z,108.57
2022-11-23T18:40:14.516Z,110.60
2022-11-23T18:42:42.630Z,100.57
2022-11-23T18:45:11.542Z,106.05
2022-11-23T18:47:39.896Z,108.35
2022-11-23T18:50:09.029Z,115.10
2022-11-23T18:52:37.397Z,114.35
2022-11-23T18:55:08.370Z,121.97
2022-11-23T18:57:36.632Z,115.18
2022-11-23T19:00:06.626Z,127.82
2022-11-23T19:02:35.536Z,127.93
2022-11-23T19:05:07.172Z,127.20
2022-11-23T19:07:35.457Z,128.57
2022-11-23T19:10:03.911Z,125.57
2022-11-23T19:12:33.447Z,134.70
2022-11-23T19:15:02.592Z,136.80
2022-11-23T19:17:31.956Z,140.50
2022-11-23T19:20:00.418Z,126.45
2022-11-23T19:22:28.696Z,131.07
2022-11-23T19:24:56.852Z,128.98
2022-11-23T19:27:25.099Z,132.40
2022-11-23T19:29:54.824Z,136.57
2022-11-23T19:32:23.146Z,131.35
2022-11-23T19:34:51.259Z,128.60
2022-11-23T19:37:19.426Z,135.02
2022-11-23T19:39:47.916Z,140.70
2022-11-23T19:42:16.274Z,136.38
2022-11-23T19:44:44.910Z,139.57
2022-11-23T19:47:18.724Z,138.00
2022-11-23T19:49:50.483Z,135.25
2022-11-23T19:52:18.732Z,138.93
2022-11-23T19:54:47.057Z,137.98
2022-11-23T19:57:15.234Z,138.50
2022-11-23T19:59:43.463Z,144.40
2022-11-23T20:02:23.076Z,132.25
2022-11-23T20:04:51.746Z,137.02
2022-11-23T20:07:20.732Z,139.73
2022-11-23T20:09:51.905Z,134.87
2022-11-23T20:12:20.829Z,134.35
2022-11-23T20:14:49.411Z,137.70
2022-11-23T20:17:17.597Z,137.10
2022-11-23T20:19:47.155Z,140.50
2022-11-23T20:22:15.837Z,133.27
2022-11-23T20:24:44.088Z,138.60
2022-11-23T20:27:13.680Z,143.48
2022-11-23T20:29:42.586Z,133.82
2022-11-23T20:32:12.722Z,144.80
2022-11-23T20:34:40.933Z,141.80
2022-11-23T20:37:10.537Z,151.77
2022-11-23T20:39:38.750Z,153.48
2022-11-23T20:42:06.976Z,148.57
2022-11-23T20:44:37.305Z,150.82
2022-11-23T20:47:06.152Z,150.80
2022-11-23T20:49:34.844Z,152.27
2022-11-23T20:52:03.062Z,144.70
2022-11-23T20:54:33.036Z,152.23
2022-11-23T20:57:01.525Z,154.07
2022-11-23T20:59:30.151Z,164.55
2022-11-23T21:01:58.596Z,151.05
2022-11-23T21:04:27.169Z,163.43
2022-11-23T21:06:55.743Z,167.80
2022-11-23T21:09:24.087Z,168.13
2022-11-23T21:12:11.288Z,170.00
2022-11-23T21:14:40.091Z,177.75
2022-11-23T21:17:08.403Z,177.90
2022-11-23T21:19:38.030Z,173.70
2022-11-23T21:22:10.834Z,178.45
2022-11-23T21:24:39.295Z,192.20
2022-11-23T21:27:12.991Z,181.23
2022-11-23T21:29:41.232Z,190.63
2022-11-23T21:32:09.859Z,187.15
2022-11-23T21:34:38.311Z,184.68
2022-11-23T21:37:06.710Z,187.05
2022-11-23T21:39:34.991Z,180.05
2022-11-23T21:42:03.393Z,177.82
2022-11-23T21:44:33.245Z,196.27
2022-11-23T21:47:01.664Z,190.35
2022-11-23T21:49:29.951Z,188.15
2022-11-23T21:51:58.538Z,201.13
2022-11-23T21:54:27.081Z,198.55
2022-11-23T21:56:55.515Z,199.90
2022-11-23T21:59:24.653Z,217.20
2022-11-23T22:01:57.205Z,208.35
2022-11-23T22:04:26.201Z,203.65
2022-11-23T22:06:54.713Z,215.27
2022-11-23T22:09:23.355Z,248.88
2022-11-23T22:11:51.819Z,240.15
2022-11-23T22:14:22.062Z,342.75
2022-11-23T22:16:50.881Z,424.67
2022-11-23T22:19:20.874Z,335.45
2022-11-23T22:21:49.240Z,254.32
2022-11-23T22:24:22.209Z,287.90
2022-11-23T22:26:50.630Z,299.60
2022-11-23T22:29:18.878Z,391.42
2022-11-23T22:31:47.252Z,397.17
2022-11-23T22:34:18.325Z,408.15
2022-11-23T22:36:50.687Z,319.50
2022-11-23T22:39:18.959Z,422.35
2022-11-23T22:41:47.295Z,477.30
2022-11-23T22:44:15.625Z,413.23
2022-11-23T22:46:45.724Z,439.08
2022-11-23T22:49:13.935Z,590.30
2022-11-23T22:51:42.448Z,367.70
2022-11-23T22:54:13.148Z,617.95
2022-11-23T22:56:41.438Z,523.92
2022-11-23T22:59:10.040Z,608.53
2022-11-23T23:01:39.540Z,405.55
2022-11-23T23:04:07.867Z,450.40
2022-11-23T23:06:36.071Z,508.85
2022-11-23T23:09:09.664Z,453.40
2022-11-23T23:11:41.289Z,690.72
2022-11-23T23:14:12.017Z,560.83
2022-11-23T23:16:40.336Z,559.80
2022-11-23T23:19:09.398Z,433.33
2022-11-23T23:21:37.675Z,507.85
2022-11-23T23:24:10.901Z,547.28
2022-11-23T23:26:43.060Z,577.90
2022-11-23T23:29:21.168Z,552.50
2022-11-23T23:31:55.227Z,493.48
2022-11-23T23:34:26.349Z,468.35
2022-11-23T23:36:54.566Z,481.85
2022-11-23T23:39:22.810Z,427.00
2022-11-23T23:41:52.519Z,364.17
2022-11-23T23:44:20.985Z,456.10
2022-11-23T23:46:51.264Z,510.08
2022-11-23T23:49:25.051Z,414.70
2022-11-23T23:51:53.564Z,410.23
2022-11-23T23:54:21.907Z,366.45
2022-11-23T23:56:54.643Z,486.40
